Time;durP1;ratioP1;P1;durP2;ratioP2;P2;SDS_P1;SDS_P2;PMS_P1;PMS_P2;Temp;Humidity;BMP_temperature;BMP_pressure;BME280_temperature;BME280_humidity;BME280_pressure;Samples;Min_cycle;Max_cycle;Signal;HPM_P1;HPM_P2
2022/06/12 00:00:45;;;;;;;3.20;2.50;;;23.90;61.60;;;;;;5040447;28;20051;-62
2022/06/12 00:03:14;;;;;;;3.38;2.58;;;23.80;61.70;;;;;;5024121;28;20020;-61
2022/06/12 00:05:41;;;;;;;3.42;2.63;;;23.80;61.90;;;;;;5004080;28;20037;-62
2022/06/12 00:08:06;;;;;;;3.83;2.47;;;23.70;62.10;;;;;;5004333;28;20073;-62
2022/06/12 00:10:33;;;;;;;4.53;2.70;;;23.70;62.20;;;;;;5019366;28;20462;-62
2022/06/12 00:12:59;;;;;;;3.33;2.40;;;23.60;62.20;;;;;;5022851;28;20416;-62
2022/06/12 00:15:26;;;;;;;3.45;2.83;;;23.60;62.40;;;;;;5023584;28;20041;-62
2022/06/12 00:17:51;;;;;;;3.53;2.90;;;23.60;62.50;;;;;;5023889;28;20167;-61
2022/06/12 00:20:17;;;;;;;3.33;2.95;;;23.50;62.60;;;;;;5022010;28;20424;-63
2022/06/12 00:22:43;;;;;;;7.10;3.25;;;23.50;62.70;;;;;;5040258;28;20045;-62
2022/06/12 00:25:10;;;;;;;3.53;3.10;;;23.50;62.70;;;;;;5021162;28;20032;-62
2022/06/12 00:27:38;;;;;;;3.17;2.90;;;23.40;62.80;;;;;;5020892;28;20465;-61
2022/06/12 00:30:05;;;;;;;7.30;3.20;;;23.40;62.80;;;;;;5023044;28;20067;-61
2022/06/12 00:32:30;;;;;;;3.83;3.20;;;23.40;62.80;;;;;;5024477;28;20029;-63
2022/06/12 00:34:57;;;;;;;8.02;3.30;;;23.40;63.00;;;;;;5040119;28;20381;-61
2022/06/12 00:37:23;;;;;;;3.38;2.90;;;23.30;63.10;;;;;;5018618;28;20051;-62
2022/06/12 00:39:49;;;;;;;3.85;2.67;;;23.30;63.10;;;;;;5020446;28;20412;-61
2022/06/12 00:42:26;;;;;;;3.03;2.50;;;23.20;63.10;;;;;;5007072;28;20025;-61
2022/06/12 00:44:52;;;;;;;3.60;2.60;;;23.20;63.20;;;;;;5022631;28;20435;-61
2022/06/12 00:47:17;;;;;;;2.90;2.60;;;23.20;63.20;;;;;;5020604;28;20060;-62
2022/06/12 00:49:54;;;;;;;3.60;2.28;;;23.20;63.40;;;;;;5019903;28;20087;-61
2022/06/12 00:52:23;;;;;;;5.43;2.63;;;23.10;63.40;;;;;;5021668;28;20484;-62
2022/06/12 00:54:52;;;;;;;6.18;2.55;;;23.10;63.60;;;;;;5021649;28;20035;-61
2022/06/12 00:57:19;;;;;;;2.40;2.20;;;23.10;63.70;;;;;;5006723;28;21617;-63
2022/06/12 00:59:53;;;;;;;2.72;2.28;;;23.00;63.90;;;;;;5020629;28;20052;-63
2022/06/12 01:02:22;;;;;;;2.33;2.13;;;22.90;64.00;;;;;;5018559;28;20051;-61
2022/06/12 01:07:37;;;;;;;3.38;2.33;;;22.90;64.40;;;;;;5028643;28;20574;-61
2022/06/12 01:10:06;;;;;;;3.78;2.55;;;22.80;64.60;;;;;;5024459;28;20338;-62
2022/06/12 01:12:34;;;;;;;3.35;2.78;;;22.80;64.80;;;;;;5026424;28;20118;-61
2022/06/12 01:15:03;;;;;;;5.55;3.13;;;22.70;64.90;;;;;;5008690;28;20536;-62
2022/06/12 01:17:28;;;;;;;4.45;3.15;;;22.70;65.10;;;;;;5024878;28;20036;-62
2022/06/12 01:19:56;;;;;;;4.38;3.20;;;22.60;65.20;;;;;;5026940;28;20272;-62
2022/06/12 01:22:43;;;;;;;6.47;3.35;;;22.70;65.40;;;;;;5026259;28;20025;-62
2022/06/12 01:25:28;;;;;;;5.38;3.55;;;22.60;65.50;;;;;;5042628;28;20076;-62
2022/06/12 01:28:18;;;;;;;6.35;3.13;;;22.60;65.60;;;;;;5039776;28;20136;-62
2022/06/12 01:30:52;;;;;;;8.45;2.78;;;22.50;65.70;;;;;;5043056;28;20037;-63
2022/06/12 01:33:26;;;;;;;5.68;2.97;;;22.50;65.80;;;;;;5026167;28;20351;-61
2022/06/12 01:36:04;;;;;;;6.70;2.72;;;22.50;66.00;;;;;;5025788;28;20044;-62
2022/06/12 01:38:32;;;;;;;4.00;2.90;;;22.40;66.10;;;;;;5041336;28;20036;-63
2022/06/12 01:41:08;;;;;;;5.28;2.90;;;22.40;66.30;;;;;;5041928;28;20223;-62
2022/06/12 01:43:44;;;;;;;3.42;2.60;;;22.30;66.30;;;;;;5009424;28;20040;-63
2022/06/12 01:46:27;;;;;;;3.30;2.78;;;22.30;66.50;;;;;;5025912;28;21074;-61
2022/06/12 01:49:13;;;;;;;4.10;2.50;;;22.20;66.70;;;;;;5025589;28;20414;-61
2022/06/12 01:51:48;;;;;;;3.85;2.78;;;22.20;66.90;;;;;;5026253;28;20021;-62
2022/06/12 01:54:14;;;;;;;;;;;22.20;67.00;;;;;;5005108;28;20044;-62
2022/06/12 01:56:42;;;;;;;14.07;2.58;;;22.10;67.20;;;;;;5040855;28;19916;-62
2022/06/12 01:59:19;;;;;;;2.97;2.40;;;22.10;67.30;;;;;;5025674;28;20092;-61
2022/06/12 02:02:01;;;;;;;2.95;2.22;;;22.10;67.50;;;;;;5025860;28;20109;-60
2022/06/12 02:04:56;;;;;;;3.53;2.53;;;22.10;67.80;;;;;;5022888;28;20033;-62
2022/06/12 02:07:22;;;;;;;2.63;2.15;;;22.00;68.00;;;;;;5025424;28;20033;-62
2022/06/12 02:09:54;;;;;;;4.63;2.20;;;22.00;68.10;;;;;;5022391;28;20044;-61
2022/06/12 02:15:39;;;;;;;3.30;2.10;;;21.90;68.20;;;;;;5027348;28;20095;-62
2022/06/12 02:18:17;;;;;;;;;;;21.90;68.40;;;;;;5013043;28;20033;-63
2022/06/12 02:20:47;;;;;;;3.40;2.38;;;21.90;68.60;;;;;;5039237;28;19917;-61
2022/06/12 02:23:20;;;;;;;6.07;2.10;;;21.80;68.50;;;;;;5024546;28;20374;-61
2022/06/12 02:25:46;;;;;;;4.88;2.30;;;21.90;68.80;;;;;;5009756;28;20036;-62
2022/06/12 02:28:24;;;;;;;3.83;2.88;;;21.80;68.70;;;;;;5025753;28;20029;-62
2022/06/12 02:30:53;;;;;;;2.85;2.40;;;21.70;68.80;;;;;;5007792;28;20036;-61
2022/06/12 02:33:22;;;;;;;5.07;3.03;;;21.70;69.00;;;;;;5024664;28;20345;-61
2022/06/12 02:36:01;;;;;;;4.05;2.83;;;21.70;69.00;;;;;;5007319;28;20059;-63
2022/06/12 02:38:41;;;;;;;3.67;2.83;;;21.60;69.00;;;;;;5011554;28;20095;-62
2022/06/12 02:41:23;;;;;;;3.88;2.58;;;21.70;69.00;;;;;;4993322;28;20028;-63
2022/06/12 02:43:48;;;;;;;3.17;2.33;;;21.60;69.00;;;;;;5025298;28;20025;-61
2022/06/12 02:46:37;;;;;;;2.95;2.65;;;21.60;69.10;;;;;;5023579;28;20067;-63
2022/06/12 02:49:06;;;;;;;3.90;2.60;;;21.60;69.20;;;;;;5026432;28;20029;-62
2022/06/12 02:51:42;;;;;;;5.15;2.40;;;21.60;69.20;;;;;;5025374;28;20029;-61
2022/06/12 02:54:23;;;;;;;4.97;2.30;;;21.50;69.30;;;;;;5024990;28;20457;-61
2022/06/12 02:57:11;;;;;;;6.28;2.33;;;21.50;69.40;;;;;;5043040;28;20036;-61
2022/06/12 03:00:00;;;;;;;5.07;2.65;;;21.50;69.60;;;;;;5022501;28;20032;-63
2022/06/12 03:02:34;;;;;;;2.70;2.45;;;21.40;69.70;;;;;;5024312;28;20068;-61
2022/06/12 03:05:09;;;;;;;4.45;2.50;;;21.40;69.80;;;;;;5043305;28;20501;-61
2022/06/12 03:07:35;;;;;;;2.97;2.30;;;21.40;69.90;;;;;;5042421;28;20847;-61
2022/06/12 03:10:04;;;;;;;2.42;2.10;;;21.40;69.80;;;;;;5041723;28;20021;-62
2022/06/12 03:12:29;;;;;;;4.38;2.53;;;21.30;69.90;;;;;;5023722;28;20036;-62
2022/06/12 03:14:55;;;;;;;3.30;2.17;;;21.30;69.90;;;;;;5023929;28;20032;-62
2022/06/12 03:17:21;;;;;;;5.75;2.30;;;21.30;70.00;;;;;;5023295;28;20047;-61
2022/06/12 03:19:49;;;;;;;6.25;2.25;;;21.20;70.00;;;;;;5025083;28;20033;-60
2022/06/12 03:22:23;;;;;;;6.55;2.25;;;21.20;70.20;;;;;;5025397;28;20032;-62
2022/06/12 03:24:58;;;;;;;3.88;2.78;;;21.20;70.30;;;;;;5021735;28;20045;-61
2022/06/12 03:27:38;;;;;;;3.45;2.55;;;21.20;70.40;;;;;;5039702;28;20056;-61
2022/06/12 03:30:33;;;;;;;4.07;3.05;;;21.10;70.40;;;;;;5022218;28;20128;-62
2022/06/12 03:33:04;;;;;;;3.25;2.80;;;21.10;70.40;;;;;;5024673;28;20029;-63
2022/06/12 03:35:36;;;;;;;3.05;2.75;;;21.00;70.50;;;;;;5024257;28;20033;-62
2022/06/12 03:38:14;;;;;;;4.18;2.70;;;21.00;70.60;;;;;;5022474;28;20417;-63
2022/06/12 03:40:52;;;;;;;7.20;2.67;;;21.00;70.70;;;;;;5024677;28;20384;-61
2022/06/12 03:43:32;;;;;;;7.55;2.58;;;21.00;70.80;;;;;;5023598;28;20250;-62
2022/06/12 03:46:03;;;;;;;2.90;2.47;;;20.90;70.90;;;;;;5021805;28;20039;-61
2022/06/12 03:48:43;;;;;;;6.53;2.30;;;20.90;71.00;;;;;;5023745;28;20036;-62
2022/06/12 03:51:14;;;;;;;3.40;2.47;;;20.90;71.10;;;;;;5022298;28;20025;-62
2022/06/12 03:53:42;;;;;;;2.50;2.30;;;20.90;71.20;;;;;;5005624;28;20025;-60
2022/06/12 03:59:26;;;;;;;3.28;2.50;;;20.80;71.30;;;;;;5027272;28;20036;-61
2022/06/12 04:01:51;;;;;;;3.20;2.10;;;20.80;71.50;;;;;;5025976;28;20055;-61
2022/06/12 04:04:17;;;;;;;3.35;2.20;;;20.70;71.60;;;;;;5022579;28;20052;-61
2022/06/12 04:06:43;;;;;;;2.42;2.22;;;20.70;71.70;;;;;;5022959;28;20033;-62
2022/06/12 04:09:20;;;;;;;3.47;2.40;;;20.70;71.70;;;;;;5022126;28;20024;-61
2022/06/12 04:11:59;;;;;;;3.20;1.98;;;20.70;71.80;;;;;;5023912;28;20037;-63
2022/06/12 04:14:29;;;;;;;2.60;2.30;;;20.70;71.90;;;;;;5021708;28;20391;-62
2022/06/12 04:16:57;;;;;;;2.53;2.33;;;20.60;72.00;;;;;;5020865;28;20181;-61
2022/06/12 04:19:23;;;;;;;2.38;1.80;;;20.60;72.00;;;;;;5019271;28;20037;-61
2022/06/12 04:22:06;;;;;;;6.22;2.78;;;20.60;72.20;;;;;;5024690;28;20074;-62
2022/06/12 04:24:46;;;;;;;2.40;2.03;;;20.50;72.20;;;;;;5005988;28;20495;-62
2022/06/12 04:27:27;;;;;;;6.22;2.20;;;20.50;72.30;;;;;;5007474;28;20029;-62
2022/06/12 04:30:00;;;;;;;4.57;2.05;;;20.50;72.50;;;;;;5006803;28;20120;-62
2022/06/12 04:32:25;;;;;;;4.82;2.20;;;20.50;72.60;;;;;;5039584;28;20131;-63
2022/06/12 04:34:53;;;;;;;2.97;2.22;;;20.40;72.70;;;;;;5024338;28;20049;-62
2022/06/12 04:37:23;;;;;;;3.88;2.08;;;20.40;72.70;;;;;;5023561;28;20092;-60
2022/06/12 04:39:49;;;;;;;4.43;2.05;;;20.40;72.80;;;;;;5008714;28;20044;-61
2022/06/12 04:42:16;;;;;;;2.17;1.88;;;20.40;73.00;;;;;;5026241;28;20032;-62
2022/06/12 04:44:41;;;;;;;2.22;1.80;;;20.30;73.00;;;;;;5025913;28;20083;-62
2022/06/12 04:47:07;;;;;;;4.95;2.50;;;20.30;73.10;;;;;;5026093;28;20029;-62
2022/06/12 04:49:33;;;;;;;5.13;2.50;;;20.30;73.30;;;;;;5022856;28;20021;-61
2022/06/12 04:51:59;;;;;;;5.22;2.25;;;20.30;73.20;;;;;;5027029;28;20040;-63
2022/06/12 04:54:25;;;;;;;6.55;4.10;;;20.30;73.10;;;;;;5023734;28;20033;-62
2022/06/12 04:56:51;;;;;;;8.23;5.50;;;20.30;73.20;;;;;;5025984;28;20044;-62
2022/06/12 04:59:17;;;;;;;4.80;3.75;;;20.30;73.30;;;;;;5042499;28;20033;-62
2022/06/12 05:01:42;;;;;;;5.65;3.30;;;20.30;73.50;;;;;;5027248;28;20024;-61
2022/06/12 05:04:08;;;;;;;5.88;3.42;;;20.20;73.60;;;;;;5026774;28;20041;-62
2022/06/12 05:06:34;;;;;;;3.83;3.42;;;20.20;73.70;;;;;;5025366;28;20103;-62
2022/06/12 05:09:00;;;;;;;4.78;3.03;;;20.20;73.80;;;;;;5023452;28;20434;-61
2022/06/12 05:11:26;;;;;;;3.13;2.72;;;20.20;73.80;;;;;;5026046;28;20080;-61
2022/06/12 05:13:51;;;;;;;4.30;3.20;;;20.20;73.80;;;;;;5025508;28;20041;-60
2022/06/12 05:16:41;;;;;;;4.30;3.10;;;20.20;73.70;;;;;;5025224;28;20028;-60
2022/06/12 05:19:08;;;;;;;6.35;3.50;;;20.20;73.70;;;;;;5026092;28;20052;-63
2022/06/12 05:21:34;;;;;;;3.85;2.72;;;20.40;73.80;;;;;;5026366;28;20503;-63
2022/06/12 05:24:00;;;;;;;3.72;2.63;;;20.20;73.80;;;;;;5040380;28;20029;-62
2022/06/12 05:26:25;;;;;;;3.90;2.97;;;20.20;73.80;;;;;;5041890;28;20037;-61
2022/06/12 05:28:51;;;;;;;2.85;2.60;;;20.20;73.80;;;;;;5025740;28;20033;-63
2022/06/12 05:31:16;;;;;;;4.25;2.85;;;20.20;73.80;;;;;;5025505;28;20037;-62
2022/06/12 05:33:43;;;;;;;3.72;2.70;;;20.20;73.80;;;;;;5024772;28;20123;-61
2022/06/12 05:36:10;;;;;;;4.50;2.80;;;20.20;73.90;;;;;;5024853;28;20645;-61
2022/06/12 05:38:36;;;;;;;6.00;2.80;;;20.20;73.90;;;;;;5024627;28;20071;-61
2022/06/12 05:41:02;;;;;;;3.13;2.83;;;20.20;73.90;;;;;;5027229;28;20029;-61
2022/06/12 05:43:28;;;;;;;3.92;2.60;;;20.20;73.90;;;;;;5044859;28;20130;-63
2022/06/12 05:45:53;;;;;;;5.88;2.92;;;20.20;74.00;;;;;;5044286;28;20116;-62
2022/06/12 05:48:19;;;;;;;4.82;2.83;;;20.20;73.90;;;;;;5043679;28;20108;-62
2022/06/12 05:50:53;;;;;;;4.03;2.78;;;20.20;73.80;;;;;;5025464;28;20492;-62
2022/06/12 05:53:19;;;;;;;4.75;2.70;;;20.20;73.70;;;;;;5026264;28;20806;-61
2022/06/12 05:55:45;;;;;;;4.93;3.05;;;20.20;73.70;;;;;;5026708;28;20196;-62
2022/06/12 05:58:11;;;;;;;3.90;2.45;;;20.20;73.70;;;;;;5043610;28;20124;-62
2022/06/12 06:00:37;;;;;;;4.53;2.50;;;20.20;73.80;;;;;;5025326;28;20032;-62
2022/06/12 06:03:02;;;;;;;4.35;2.72;;;20.20;73.90;;;;;;5042993;28;20049;-62
2022/06/12 06:05:28;;;;;;;3.58;2.53;;;20.20;74.10;;;;;;5044551;28;20473;-62
2022/06/12 06:07:53;;;;;;;2.72;2.25;;;20.20;74.10;;;;;;5025687;28;20048;-61
2022/06/12 06:10:26;;;;;;;4.88;2.60;;;20.20;74.20;;;;;;5040825;28;20050;-63
2022/06/12 06:12:52;;;;;;;2.85;2.55;;;20.20;74.30;;;;;;5023201;28;20033;-62
2022/06/12 06:15:18;;;;;;;3.28;2.63;;;20.20;74.20;;;;;;5008441;28;20658;-61
2022/06/12 06:17:43;;;;;;;3.65;2.40;;;20.20;74.10;;;;;;5008148;28;20021;-61
2022/06/12 06:20:13;;;;;;;2.63;2.20;;;20.30;74.20;;;;;;5025988;28;20036;-63
2022/06/12 06:22:38;;;;;;;4.28;2.70;;;20.30;74.10;;;;;;5025215;28;20470;-60
2022/06/12 06:25:04;;;;;;;3.38;2.50;;;20.30;74.20;;;;;;5023718;28;20040;-60
2022/06/12 06:27:30;;;;;;;2.90;2.47;;;20.30;74.20;;;;;;5023670;28;20066;-62
2022/06/12 06:29:55;;;;;;;4.60;2.42;;;20.30;74.30;;;;;;5024364;28;20028;-61
2022/06/12 06:32:20;;;;;;;5.00;2.22;;;20.30;74.30;;;;;;5025829;28;20029;-62
2022/06/12 06:34:46;;;;;;;4.95;2.90;;;20.30;75.00;;;;;;5042592;28;20037;-62
2022/06/12 06:37:12;;;;;;;2.60;2.28;;;20.30;74.30;;;;;;5022029;28;20555;-62
2022/06/12 06:39:38;;;;;;;5.55;2.30;;;20.20;74.30;;;;;;5020155;28;20025;-61
2022/06/12 06:42:05;;;;;;;3.63;2.70;;;20.20;74.50;;;;;;5021202;28;20037;-62
2022/06/12 06:47:14;;;;;;;4.32;2.10;;;20.30;74.70;;;;;;5021329;28;20381;-62
2022/06/12 06:49:40;;;;;;;3.67;3.00;;;20.30;74.60;;;;;;5023238;28;20029;-61
2022/06/12 06:52:06;;;;;;;3.80;2.80;;;20.30;74.70;;;;;;5023164;28;20148;-62
2022/06/12 06:54:31;;;;;;;7.18;2.15;;;20.30;74.80;;;;;;5018012;28;20065;-61
2022/06/12 06:56:57;;;;;;;3.88;2.13;;;20.30;74.80;;;;;;5022530;28;20095;-62
2022/06/12 06:59:22;;;;;;;5.22;2.47;;;20.30;74.90;;;;;;5023018;28;20338;-62
2022/06/12 07:01:48;;;;;;;2.92;2.40;;;20.30;74.90;;;;;;5021794;28;20040;-62
2022/06/12 07:04:13;;;;;;;2.33;2.08;;;20.30;74.80;;;;;;5022708;28;20026;-62
2022/06/12 07:06:39;;;;;;;2.47;1.80;;;20.30;74.70;;;;;;5020195;28;20533;-61
2022/06/12 07:09:05;;;;;;;4.13;1.98;;;20.30;74.80;;;;;;5017341;28;20048;-61
2022/06/12 07:11:30;;;;;;;3.08;2.28;;;20.30;74.80;;;;;;5019481;28;20056;-61
2022/06/12 07:13:56;;;;;;;4.63;2.45;;;20.30;74.70;;;;;;5021699;28;20033;-62
2022/06/12 07:16:22;;;;;;;4.22;2.10;;;20.30;74.70;;;;;;5020397;28;20113;-62
2022/06/12 07:18:48;;;;;;;4.90;2.35;;;20.30;74.80;;;;;;5018232;28;20056;-62
2022/06/12 07:21:14;;;;;;;4.57;2.13;;;20.30;74.80;;;;;;5019246;28;20136;-62
2022/06/12 07:23:40;;;;;;;3.13;2.40;;;20.30;74.70;;;;;;5020001;28;20030;-62
2022/06/12 07:26:08;;;;;;;2.97;2.53;;;20.30;74.80;;;;;;5020556;28;20064;-63
2022/06/12 07:28:35;;;;;;;2.63;2.10;;;20.40;74.70;;;;;;5022844;28;20047;-62
2022/06/12 07:31:01;;;;;;;3.10;2.25;;;20.40;74.70;;;;;;5020097;28;20056;-61
2022/06/12 07:33:26;;;;;;;3.45;2.30;;;20.40;74.70;;;;;;5020330;28;20426;-61
2022/06/12 07:35:52;;;;;;;3.65;2.00;;;20.40;74.60;;;;;;5007121;28;20060;-62
2022/06/12 07:38:19;;;;;;;3.00;1.92;;;20.40;74.60;;;;;;5022926;28;20115;-61
2022/06/12 07:40:47;;;;;;;3.53;2.08;;;20.40;74.60;;;;;;5022721;28;20476;-61
2022/06/12 07:43:13;;;;;;;3.53;2.40;;;20.40;74.60;;;;;;5023116;28;20133;-59
2022/06/12 07:45:39;;;;;;;6.43;2.13;;;20.40;74.20;;;;;;5022887;28;20048;-61
2022/06/12 07:48:04;;;;;;;3.45;2.10;;;20.40;74.20;;;;;;5022045;28;20353;-62
2022/06/12 07:50:30;;;;;;;5.75;2.00;;;20.50;74.10;;;;;;5041915;28;20037;-60
2022/06/12 07:52:55;;;;;;;3.33;2.10;;;20.50;74.10;;;;;;5040458;28;20044;-61
2022/06/12 07:55:21;;;;;;;5.30;2.00;;;20.50;74.00;;;;;;5039420;28;20033;-62
2022/06/12 07:57:48;;;;;;;3.13;2.05;;;20.50;73.90;;;;;;5039380;28;20017;-62
2022/06/12 08:00:14;;;;;;;4.20;2.13;;;20.50;73.80;;;;;;5006018;28;20044;-62
2022/06/12 08:02:41;;;;;;;4.63;2.30;;;20.50;73.80;;;;;;5022464;28;20098;-61
2022/06/12 08:05:07;;;;;;;1.95;1.83;;;20.50;73.90;;;;;;5041764;28;20024;-61
2022/06/12 08:07:34;;;;;;;7.45;2.72;;;20.60;73.70;;;;;;5023976;28;20480;-62
2022/06/12 08:09:59;;;;;;;3.35;2.13;;;20.60;73.50;;;;;;5023376;28;20024;-62
2022/06/12 08:12:25;;;;;;;5.65;2.40;;;20.60;73.30;;;;;;5022497;28;20045;-62
2022/06/12 08:14:51;;;;;;;8.82;2.40;;;20.60;73.10;;;;;;5044304;28;20091;-61
2022/06/12 08:17:16;;;;;;;9.77;3.08;;;20.70;73.00;;;;;;5040696;28;20492;-64
2022/06/12 08:22:26;;;;;;;24.63;4.13;;;20.70;72.80;;;;;;5045745;28;20122;-63
2022/06/12 08:24:52;;;;;;;24.73;4.20;;;20.80;72.90;;;;;;5024479;28;20660;-62
2022/06/12 08:27:17;;;;;;;20.35;3.90;;;20.80;72.70;;;;;;5040645;28;20115;-61
2022/06/12 08:29:43;;;;;;;21.80;4.47;;;20.80;72.60;;;;;;5044073;28;20408;-62
2022/06/12 08:32:13;;;;;;;31.15;4.30;;;20.90;72.40;;;;;;5027687;28;20365;-63
2022/06/12 08:34:41;;;;;;;30.15;4.78;;;20.90;72.20;;;;;;5026993;28;20481;-61
2022/06/12 08:37:11;;;;;;;39.55;5.57;;;21.00;72.00;;;;;;5006446;28;20524;-61
2022/06/12 08:39:36;;;;;;;46.30;6.70;;;21.10;71.80;;;;;;5023392;28;20037;-61
2022/06/12 08:42:24;;;;;;;93.15;12.00;;;21.10;71.60;;;;;;5018275;28;20492;-62
2022/06/12 08:44:54;;;;;;;84.10;8.77;;;21.20;71.30;;;;;;5023847;28;20080;-62
2022/06/12 08:47:25;;;;;;;58.05;7.95;;;21.20;71.40;;;;;;5039058;28;20013;-61
2022/06/12 08:50:12;;;;;;;53.40;8.07;;;21.20;71.30;;;;;;5032832;28;20025;-62
2022/06/12 08:52:50;;;;;;;66.78;6.57;;;21.20;71.30;;;;;;5021048;28;20677;-61
2022/06/12 08:55:36;;;;;;;51.33;6.20;;;21.30;71.30;;;;;;5005247;28;20047;-63
2022/06/12 08:58:07;;;;;;;37.47;5.80;;;21.40;70.80;;;;;;5006614;28;20513;-63
2022/06/12 09:00:35;;;;;;;69.13;8.15;;;21.40;70.60;;;;;;5023322;28;20044;-62
2022/06/12 09:03:02;;;;;;;43.13;6.57;;;21.40;71.10;;;;;;5006546;28;20028;-63
2022/06/12 09:05:39;;;;;;;66.78;7.55;;;21.50;70.50;;;;;;5024197;28;20625;-61
2022/06/12 09:08:29;;;;;;;54.90;7.63;;;21.50;70.70;;;;;;5022671;28;20525;-62
2022/06/12 09:10:57;;;;;;;77.38;10.80;;;21.50;70.40;;;;;;5025712;28;20028;-62
2022/06/12 09:13:30;;;;;;;117.90;11.75;;;21.60;70.90;;;;;;5025657;28;20025;-62
2022/06/12 09:15:58;;;;;;;115.53;11.50;;;21.60;71.20;;;;;;5024961;28;20110;-62
2022/06/12 09:18:51;;;;;;;117.72;12.73;;;21.70;70.80;;;;;;5039141;28;20098;-62
2022/06/12 09:21:40;;;;;;;78.65;10.27;;;21.80;71.10;;;;;;5024410;28;20135;-61
2022/06/12 09:24:20;;;;;;;102.45;12.45;;;21.80;70.80;;;;;;5026207;28;20917;-62
2022/06/12 09:26:51;;;;;;;98.63;13.07;;;21.80;70.70;;;;;;5023459;28;20048;-63
2022/06/12 09:29:26;;;;;;;120.60;14.32;;;21.90;70.60;;;;;;5037921;28;20021;-62
2022/06/12 09:31:58;;;;;;;104.80;15.68;;;21.90;70.70;;;;;;5020069;28;20122;-61
2022/06/12 09:34:42;;;;;;;126.80;14.50;;;21.90;70.50;;;;;;5024243;28;20115;-61
2022/06/12 09:40:41;;;;;;;107.70;13.07;;;22.10;70.60;;;;;;5023961;28;20538;-61
2022/06/12 09:43:33;;;;;;;148.20;16.60;;;22.10;70.70;;;;;;5021673;28;20041;-62
2022/06/12 09:46:06;;;;;;;132.07;15.70;;;22.20;70.70;;;;;;5005850;28;20032;-65
2022/06/12 09:48:47;;;;;;;143.20;16.88;;;22.30;70.60;;;;;;5022406;28;20029;-62
2022/06/12 09:51:32;;;;;;;126.57;15.80;;;22.40;70.00;;;;;;5005640;28;20021;-62
2022/06/12 09:54:00;;;;;;;116.53;16.55;;;22.40;70.10;;;;;;5039211;28;20033;-61
2022/06/12 09:56:33;;;;;;;138.05;16.35;;;22.40;69.90;;;;;;5038746;28;20712;-63
2022/06/12 09:59:13;;;;;;;128.68;16.50;;;22.50;69.60;;;;;;5005797;28;20041;-62
2022/06/12 10:01:41;;;;;;;126.15;15.00;;;22.50;69.40;;;;;;4988496;28;20051;-62
2022/06/12 10:04:11;;;;;;;130.00;14.90;;;22.60;68.80;;;;;;5003946;28;20029;-62
2022/06/12 10:06:47;;;;;;;114.28;14.10;;;22.60;68.60;;;;;;5019627;28;20025;-62
2022/06/12 10:09:18;;;;;;;105.68;11.80;;;22.70;68.30;;;;;;5020803;28;20396;-62
2022/06/12 10:11:56;;;;;;;98.30;12.20;;;22.70;69.00;;;;;;5004259;28;20035;-62
2022/06/12 10:14:45;;;;;;;83.40;11.60;;;22.80;68.20;;;;;;5004169;28;20037;-62
2022/06/12 10:17:17;;;;;;;117.88;14.88;;;22.80;68.20;;;;;;5022869;28;20024;-62
2022/06/12 10:19:57;;;;;;;109.00;13.18;;;22.80;68.10;;;;;;5007011;28;20033;-61
2022/06/12 10:22:29;;;;;;;100.75;12.88;;;22.90;67.90;;;;;;5004286;28;20040;-61
2022/06/12 10:24:55;;;;;;;107.30;13.02;;;22.90;67.90;;;;;;5018153;28;20435;-61
2022/06/12 10:27:21;;;;;;;119.78;13.52;;;22.90;67.60;;;;;;5004346;28;20039;-61
2022/06/12 10:29:48;;;;;;;72.90;12.00;;;22.90;67.70;;;;;;5006129;28;20025;-63
2022/06/12 10:32:19;;;;;;;110.85;13.38;;;23.00;67.60;;;;;;5041630;28;20044;-62
2022/06/12 10:34:45;;;;;;;102.70;13.30;;;23.10;67.60;;;;;;5004458;28;20025;-61
2022/06/12 10:37:24;;;;;;;96.53;10.98;;;23.20;67.50;;;;;;5013853;28;20106;-62
2022/06/12 10:40:16;;;;;;;92.15;12.43;;;23.20;67.20;;;;;;5021163;28;20143;-63
2022/06/12 10:42:57;;;;;;;119.53;14.57;;;23.30;67.00;;;;;;5011705;28;20040;-62
2022/06/12 10:45:29;;;;;;;88.15;11.23;;;23.40;67.00;;;;;;5005778;28;20120;-62
2022/06/12 10:47:57;;;;;;;115.22;15.27;;;23.40;66.90;;;;;;5000532;28;20078;-63
2022/06/12 10:50:24;;;;;;;113.47;12.85;;;23.50;67.00;;;;;;4999674;28;20056;-63
2022/06/12 10:52:59;;;;;;;83.57;11.32;;;23.60;66.40;;;;;;5016024;28;20033;-63
2022/06/12 10:55:49;;;;;;;115.85;13.45;;;23.70;66.40;;;;;;5016727;28;20630;-62
2022/06/12 10:58:39;;;;;;;111.47;12.77;;;23.80;66.20;;;;;;5031998;28;20048;-61
2022/06/12 11:01:16;;;;;;;108.30;13.43;;;23.90;66.10;;;;;;5036367;28;20033;-62
2022/06/12 11:04:13;;;;;;;131.95;15.70;;;24.00;65.60;;;;;;5021084;28;20044;-61
2022/06/12 11:06:48;;;;;;;94.22;11.00;;;24.10;65.80;;;;;;5020442;28;20029;-63
2022/06/12 11:09:29;;;;;;;114.88;13.77;;;24.20;65.10;;;;;;5036125;28;20021;-62
2022/06/12 11:12:05;;;;;;;107.13;13.10;;;24.30;65.00;;;;;;5038403;28;20113;-62
2022/06/12 11:14:44;;;;;;;78.60;11.25;;;24.50;64.80;;;;;;5020951;28;20122;-62
2022/06/12 11:17:36;;;;;;;107.10;14.57;;;24.60;64.40;;;;;;5032174;28;20048;-63
2022/06/12 11:20:20;;;;;;;86.88;11.18;;;24.80;64.10;;;;;;5037077;28;20033;-62
2022/06/12 11:22:48;;;;;;;113.60;12.82;;;24.90;63.70;;;;;;5020497;28;20044;-62
2022/06/12 11:25:40;;;;;;;102.93;11.75;;;25.00;63.00;;;;;;5038354;28;20041;-62
2022/06/12 11:28:14;;;;;;;90.18;13.85;;;25.10;62.90;;;;;;5019129;28;20052;-63
2022/06/12 11:31:09;;;;;;;111.47;12.93;;;25.30;62.20;;;;;;5017994;28;20029;-62
2022/06/12 11:33:43;;;;;;;111.53;13.48;;;25.30;62.30;;;;;;5019784;28;20497;-61
2022/06/12 11:36:20;;;;;;;129.32;15.75;;;25.50;61.90;;;;;;5020007;28;20047;-63
2022/06/12 11:39:05;;;;;;;88.97;11.73;;;25.60;62.20;;;;;;5038265;28;20021;-62
2022/06/12 11:41:43;;;;;;;134.50;16.20;;;25.70;61.40;;;;;;5016130;28;20052;-63
2022/06/12 11:44:32;;;;;;;108.60;13.40;;;25.80;61.90;;;;;;5020802;28;20114;-62
2022/06/12 11:47:23;;;;;;;138.88;14.48;;;26.00;61.60;;;;;;5018096;28;20527;-62
2022/06/12 11:49:56;;;;;;;121.18;10.30;;;26.00;61.10;;;;;;5018209;28;20064;-62
2022/06/12 11:52:29;;;;;;;66.38;8.85;;;26.20;60.40;;;;;;5035804;28;20092;-62
2022/06/12 11:55:04;;;;;;;99.95;11.88;;;26.20;59.70;;;;;;5018064;28;20037;-62
2022/06/12 11:57:38;;;;;;;86.63;10.40;;;26.30;59.80;;;;;;5038341;28;20044;-62
2022/06/12 12:00:51;;;;;;;75.63;9.82;;;26.40;59.30;;;;;;5004227;28;20033;-61
2022/06/12 12:03:32;;;;;;;89.30;10.90;;;26.50;59.30;;;;;;5001935;28;20481;-62
2022/06/12 12:06:26;;;;;;;66.80;7.55;;;26.60;59.20;;;;;;5035280;28;20063;-61
2022/06/12 12:08:58;;;;;;;77.53;9.50;;;26.60;58.40;;;;;;5021540;28;20032;-62
2022/06/12 12:11:30;;;;;;;98.82;9.88;;;26.70;58.70;;;;;;5036413;28;20625;-63
2022/06/12 12:13:57;;;;;;;94.55;10.07;;;26.80;58.40;;;;;;5004697;28;20028;-62
2022/06/12 12:16:35;;;;;;;86.15;9.18;;;26.90;58.20;;;;;;4986669;28;20044;-62
2022/06/12 12:19:23;;;;;;;54.42;8.32;;;27.00;57.80;;;;;;5000645;28;20100;-62
2022/06/12 12:22:08;;;;;;;85.82;11.25;;;27.00;57.80;;;;;;5037889;28;20100;-62
2022/06/12 12:25:02;;;;;;;102.03;11.15;;;27.10;57.60;;;;;;5012967;28;20166;-62
2022/06/12 12:27:55;;;;;;;75.10;7.43;;;27.20;56.70;;;;;;4998521;28;20064;-62
2022/06/12 12:30:25;;;;;;;106.10;10.13;;;27.30;55.70;;;;;;4992999;28;20035;-63
2022/06/12 12:32:52;;;;;;;116.07;12.32;;;27.30;55.30;;;;;;5019115;28;20029;-62
2022/06/12 12:43:31;;;;;;;77.55;8.85;;;27.60;52.10;;;;;;5036743;28;20044;-62
2022/06/12 12:46:03;;;;;;;89.55;9.70;;;27.70;52.60;;;;;;5011491;28;20454;-63
2022/06/12 12:48:38;;;;;;;134.35;14.15;;;27.70;52.30;;;;;;4998013;28;20033;-63
2022/06/12 12:51:03;;;;;;;75.65;9.38;;;27.80;52.60;;;;;;5005299;28;20021;-63
2022/06/12 12:53:34;;;;;;;62.90;7.53;;;27.90;52.00;;;;;;5021717;28;20103;-61
2022/06/12 12:56:08;;;;;;;115.45;12.60;;;28.00;51.50;;;;;;5019036;28;20082;-62
2022/06/12 12:58:40;;;;;;;74.28;8.55;;;28.10;51.40;;;;;;5019292;28;20411;-62
2022/06/12 13:01:14;;;;;;;129.05;13.80;;;28.10;51.50;;;;;;5021002;28;20086;-63
2022/06/12 13:03:44;;;;;;;130.85;16.42;;;28.20;51.30;;;;;;5005195;28;20949;-62
2022/06/12 13:06:28;;;;;;;103.05;11.07;;;28.30;51.40;;;;;;5005189;28;20029;-62
2022/06/12 13:09:19;;;;;;;78.45;9.35;;;28.40;51.30;;;;;;5039202;28;20030;-63
2022/06/12 13:12:03;;;;;;;67.88;8.60;;;28.50;50.80;;;;;;5024059;28;20082;-63
2022/06/12 13:14:42;;;;;;;49.55;6.85;;;28.60;50.00;;;;;;5026513;28;20406;-64
2022/06/12 13:17:27;;;;;;;91.40;10.10;;;28.60;49.20;;;;;;5021163;28;20039;-62
2022/06/12 13:20:37;;;;;;;72.18;8.85;;;28.60;49.40;;;;;;5023797;28;20040;-62
2022/06/12 13:23:28;;;;;;;63.70;7.07;;;28.60;48.50;;;;;;5008021;28;20053;-63
2022/06/12 13:25:54;;;;;;;73.68;9.73;;;28.70;48.70;;;;;;5029914;28;20119;-63
2022/06/12 13:28:28;;;;;;;80.47;11.85;;;28.80;49.60;;;;;;5022484;28;20630;-64
2022/06/12 13:30:55;;;;;;;84.63;10.48;;;28.80;49.90;;;;;;5024446;28;20033;-62
2022/06/12 13:33:23;;;;;;;63.40;8.32;;;28.80;50.00;;;;;;5023840;28;20319;-62